Flight Track Log - Related Links

Times and Time Zones

All times are in EDT time to prevent confusion due to time zone crossing. See the SWA385 flight status page for this flight to view local times or setup timezone preferences in your user account.


Time Position Orientation Groundspeed Altitude Reporting Facility
EDT Latitude Longitude Course Direction KTS MPH feet Rate Location/Type
Sun 04:47:55 PM 38.8647 -77.5058 270° West 212 244 3,900  Level Washington Center
Sun 04:48:56 PM 38.8653 -77.6125 270° West 241 277 6,900 3,074 Climbing Washington Center
Sun 04:49:56 PM 38.8719 -77.7008 276° West 277 319 10,100 2,876 Climbing Washington Center
Sun 04:50:57 PM 38.8928 -77.8267 282° West 316 364 12,700 2,824 Climbing Washington Center
Sun 04:51:55 PM 38.9131 -77.9553 281° West 356 410 15,700 2,622 Climbing Washington Center
Sun 04:52:00 PM 38.9167 -78.1000 288° West  Level FlightAware Approximate
Sun 04:52:56 PM 38.9375 -78.0869 283° West 371 427 17,900  Level Washington Center
Sun 04:53:00 PM 38.9500 -78.2276 270° West  Level FlightAware Approximate
Sun 04:53:57 PM 38.9597 -78.2239 282° West 383 441 20,600  Level Washington Center
Sun 04:54:55 PM 38.9647 -78.3681 273° West 396 456 23,000 2,237 Climbing Washington Center
Sun 04:55:55 PM 38.9694 -78.5206 272° West 417 480 25,000 1,884 Climbing Washington Center
Sun 04:56:56 PM 38.9739 -78.6783 272° West 434 499 26,800 1,918 Climbing Washington Center
Sun 04:57:57 PM 38.9781 -78.8386 272° West 445 512 28,900 1,950 Climbing Washington Center
Sun 04:58:56 PM 38.9819 -79.0017 272° West 456 525 30,700 1,850 Climbing Washington Center
Sun 04:59:57 PM 38.9872 -79.1703 272° West 468 539 32,600 1,805 Climbing Washington Center
Sun 05:00:59 PM 38.9950 -79.3336 274° West 468 539 34,400 1,700 Climbing Washington Center
Sun 05:01:57 PM 39.0147 -79.4950 279° West 463 533 36,000 1,322 Climbing Washington Center
Sun 05:02:57 PM 39.0369 -79.6403 281° West 463 533 37,000 500 Climbing Washington Center
Sun 05:03:57 PM 39.0625 -79.8075 281° West 456 525 37,000 233 Level Washington Center
Sun 05:04:40 PM 39.0756 -79.9097 279° West 450 518 37,400 571 Climbing Indianapolis Center
Sun 05:05:42 PM 39.1017 -80.0867 281° West 446 513 38,000 290 Climbing Indianapolis Center
Sun 05:06:44 PM 39.1244 -80.2450 281° West 451 519 38,000  Level Indianapolis Center
Sun 05:07:46 PM 39.1467 -80.4017 280° West 445 512 38,000  Level Indianapolis Center
Sun 05:08:47 PM 39.1686 -80.5586 280° West 447 514 38,000  Level Indianapolis Center
Sun 05:09:49 PM 39.1919 -80.7161 281° West 450 518 38,000  Level Indianapolis Center
Sun 05:10:51 PM 39.2311 -80.8656 289° West 448 516 38,000  Level Indianapolis Center
Sun 05:11:53 PM 39.3039 -81.0336 299° West 449 517 38,000  Level Indianapolis Center
Sun 05:12:54 PM 39.3642 -81.1733 299° West 448 516 38,000  Level Indianapolis Center
Sun 05:13:56 PM 39.4239 -81.3139 299° West 449 517 38,000  Level Indianapolis Center
Sun 05:14:58 PM 39.4831 -81.4536 299° West 446 513 38,000  Level Indianapolis Center
Sun 05:16:00 PM 39.5431 -81.5917 299° West 442 509 38,000  Level Indianapolis Center
Sun 05:17:02 PM 39.6006 -81.7300 298° West 439 505 38,000  Level Indianapolis Center
Sun 05:18:04 PM 39.6714 -81.8981 299° West 443 510 38,000  Level Indianapolis Center
Sun 05:19:05 PM 39.7253 -82.0275 298° West 446 513 38,000  Level Indianapolis Center
Sun 05:20:07 PM 39.7847 -82.1706 298° West 448 516 38,000  Level Indianapolis Center
Sun 05:21:09 PM 39.8431 -82.3136 298° West 445 512 38,000  Level Indianapolis Center
Sun 05:22:11 PM 39.9139 -82.4806 299° West 447 514 38,000  Level Indianapolis Center
Sun 05:23:13 PM 39.9736 -82.6258 298° West 450 518 38,000  Level Indianapolis Center
Sun 05:24:14 PM 40.0322 -82.7703 298° West 450 518 38,000  Level Indianapolis Center
Sun 05:25:16 PM 40.0906 -82.9156 298° West 451 519 38,000  Level Indianapolis Center
Sun 05:26:18 PM 40.1506 -83.0606 298° West 450 518 38,000  Level Indianapolis Center
Sun 05:27:20 PM 40.2094 -83.2067 298° West 453 521 38,000  Level Indianapolis Center
Sun 05:28:22 PM 40.2678 -83.3522 298° West 452 520 38,000  Level Indianapolis Center
Sun 05:29:24 PM 40.3358 -83.5225 298° West 451 519 38,000 -439 Level Indianapolis Center
Sun 05:30:25 PM 40.3931 -83.6689 297° West 450 518 37,100 -927 Descending Indianapolis Center
Sun 05:31:27 PM 40.4511 -83.8150 298° West 450 518 36,100 -532 Descending Indianapolis Center
Sun 05:32:29 PM 40.5100 -83.9647 297° West 457 526 36,000 -48 Descending Indianapolis Center
Sun 05:33:31 PM 40.5681 -84.1122 297° West 453 521 36,000 -585 Level Indianapolis Center
Sun 05:34:32 PM 40.6253 -84.2583 297° West 448 516 34,800 -2,098 Descending Indianapolis Center
Sun 05:35:34 PM 40.6831 -84.4089 297° West 455 524 31,700 -2,323 Descending Indianapolis Center
Sun 05:36:36 PM 40.7414 -84.5597 297° West 459 528 30,000 -823 Descending Indianapolis Center
Sun 05:37:38 PM 40.8092 -84.7394 297° West 464 534 30,000  Level Indianapolis Center
Sun 05:38:39 PM 40.8678 -84.8942 297° West 467 537 30,000  Level Indianapolis Center
Sun 05:39:16 PM 40.9025 -84.9858 297° West 468 539 30,000 -242 Level Chicago Center
Sun 05:40:18 PM 40.9606 -85.1389 297° West 466 536 29,600 -435 Descending Chicago Center
Sun 05:41:20 PM 41.0431 -85.2783 308° West 474 545 29,100 -484 Descending Chicago Center
Sun 05:42:22 PM 41.1300 -85.4108 311° West 475 547 28,600 -1,296 Descending Chicago Center
Sun 05:43:25 PM 41.2181 -85.5469 311° West 482 555 26,400 -2,256 Descending Chicago Center
Sun 05:44:27 PM 41.3017 -85.6808 310° West 471 542 23,900 -2,468 Descending Chicago Center
Sun 05:45:29 PM 41.3939 -85.8250 310° West 429 494 21,300 -2,613 Descending Chicago Center
Sun 05:46:31 PM 41.4661 -85.9381 310° West 405 466 18,500 -2,468 Descending Chicago Center
Sun 05:47:33 PM 41.5233 -86.0539 303° West 385 443 16,200 -2,129 Descending Chicago Center
Sun 05:48:35 PM 41.5236 -86.1864 270° West 356 410 14,100 -1,887 Descending Chicago Center
Sun 05:49:37 PM 41.5225 -86.3142 269° West 346 398 12,300 -1,355 Descending Chicago Center
Sun 05:50:39 PM 41.5219 -86.4375 270° West 333 383 11,300 -1,113 Descending Chicago Center
Sun 05:51:41 PM 41.4839 -86.5650 248° West 304 350 10,000 -581 Descending Chicago Center
Sun 05:52:43 PM 41.4439 -86.6536 239° Southwest 283 326 10,100  Climbing Chicago Center
Sun 05:53:46 PM 41.4236 -86.7411 253° West 281 323 10,000 -576 Descending Chicago Center
Sun 05:54:48 PM 41.4517 -86.8669 287° West 297 342 8,900 -1,210 Descending Chicago Center
Sun 05:55:50 PM 41.4722 -86.9683 285° West 290 334 7,500 -1,355 Descending Chicago Center
Sun 05:56:52 PM 41.5108 -87.0631 299° West 299 344 6,100 -726 Descending Chicago Center
Sun 05:57:54 PM 41.5119 -87.1675 271° West 286 329 6,000 -480 Descending Chicago Center
Sun 05:58:57 PM 41.5156 -87.2711 273° West 282 325 5,100 -480 Descending Chicago Center
Sun 05:59:59 PM 41.5292 -87.3931 279° West 280 322 5,000 -145 Descending Chicago Center
Sun 06:01:01 PM 41.5400 -87.4944 278° West 280 322 4,800 -532 Descending Chicago Center
Sun 06:02:03 PM 41.5508 -87.5950 278° West 277 319 3,900 -629 Descending Chicago Center
Sun 06:03:05 PM 41.5622 -87.6928 279° West 274 315 3,500 -484 Descending Chicago Center
Sun 06:04:07 PM 41.5742 -87.8150 277° West 277 319 2,900 -290 Descending Chicago Center
Sun 06:05:09 PM 41.6081 -87.8889 302° West 254 292 2,900 48 Level Chicago Center
Sun 06:06:11 PM 41.6525 -87.9139 337° Northwest 217 250 3,000 -305 Climbing Chicago Center
Sun 06:08:06 PM 41.7333 -87.8333 37° Northeast 170 196 2,000 -583 Descending Chicago TRACON
Sun 06:09:06 PM 41.7500 -87.7833 66° East 133 153 1,300 -448 Descending Chicago TRACON
Sun 06:10:20 PM 41.7850 -87.7525 33° Northeast 148 170 1,000 -243 Descending Chicago Center

Login

Don't have an account? Register now (free) for customized features, flight alerts, and more!